LTCI Airport Information

Runway Information
Runway 03 Length 9022 ft width 148 ft
Elevation 5412 ft Threshold 0 ft Heading 38
Runway 21 Length 9022 ft Width 148 ft
Elevation 5474 ft Threshold 0 ft Heading 218
Airport Frequencies
Type APP Name APP Frequency 118.1 MHZ
Type GND Name GND Frequency 121.9 MHZ
Type TWR Name TWR Frequency 118.1 MHZ
Airport Navaids
Type VOR-DME Name Van Frequency 115200 KHZ
Type NDB Name Van Frequency 397 KHZ
Airport Weather Information & NOTAM
ADDS - METARS form results

(2001 UTC 22 July 2018)
 
METAR text: LTCI 221950Z 09006KT 9999 SCT040 20/11 Q1011 NOSIG
Conditions at: LTCI (VAN , TR) observed 1950 UTC 22 July 2018
Temperature: 20.0°C (68°F)
Dewpoint: 11.0°C (52°F) [RH = 56%]
Pressure (altimeter): 29.85 inches Hg (1011.0 mb)
Winds: from the E (90 degrees) at 7 MPH (6 knots; 3.1 m/s)
Visibility: 6 or more miles (10+ km)
Ceiling: at least 12,000 feet AGL
Clouds: scattered clouds at 4000 feet AGL
Weather: no significant weather observed at this time